createdAt,value
2022-09-15T00:00:27.976Z,2.40
2022-09-15T00:02:54.652Z,2.17
2022-09-15T00:05:21.267Z,2.80
2022-09-15T00:07:47.897Z,2.20
2022-09-15T00:10:14.562Z,2.00
2022-09-15T00:12:41.620Z,2.35
2022-09-15T00:15:09.304Z,2.28
2022-09-15T00:17:35.822Z,2.50
2022-09-15T00:20:06.143Z,2.78
2022-09-15T00:22:32.840Z,2.50
2022-09-15T00:24:59.468Z,2.00
2022-09-15T00:27:26.155Z,2.25
2022-09-15T00:29:52.753Z,2.65
2022-09-15T00:32:19.966Z,1.98
2022-09-15T00:34:46.818Z,2.33
2022-09-15T00:37:13.409Z,2.00
2022-09-15T00:39:41.600Z,2.17
2022-09-15T00:42:17.597Z,2.45
2022-09-15T00:45:06.629Z,1.90
2022-09-15T00:47:39.223Z,2.20
2022-09-15T00:50:18.743Z,2.05
2022-09-15T00:53:08.286Z,2.30
2022-09-15T00:55:47.486Z,2.30
2022-09-15T00:58:23.203Z,2.17
2022-09-15T01:00:56.270Z,2.65
2022-09-15T01:03:25.156Z,1.90
2022-09-15T01:05:55.676Z,1.90
2022-09-15T01:08:34.896Z,1.92
2022-09-15T01:11:02.626Z,2.30
2022-09-15T01:13:29.846Z,2.60
2022-09-15T01:16:32.672Z,2.70
2022-09-15T01:19:12.221Z,2.20
2022-09-15T01:21:58.603Z,2.50
2022-09-15T01:24:45.829Z,2.67
2022-09-15T01:27:49.418Z,2.45
2022-09-15T01:30:25.978Z,2.50
2022-09-15T01:33:31.366Z,2.30
2022-09-15T01:36:10.510Z,2.22
2022-09-15T01:38:50.450Z,2.50
2022-09-15T01:41:48.267Z,2.10
2022-09-15T01:44:35.172Z,2.33
2022-09-15T01:47:06.662Z,2.47
2022-09-15T01:50:01.592Z,2.15
2022-09-15T01:52:30.700Z,2.45
2022-09-15T01:55:00.685Z,2.30
2022-09-15T01:57:27.996Z,2.00
2022-09-15T01:59:56.161Z,2.03
2022-09-15T02:02:32.226Z,2.60
2022-09-15T02:05:26.506Z,2.05
2022-09-15T02:08:05.497Z,2.22
2022-09-15T02:11:12.889Z,1.95
2022-09-15T02:14:11.537Z,2.15
2022-09-15T02:16:40.720Z,2.15
2022-09-15T02:19:35.891Z,2.30
2022-09-15T02:22:14.553Z,2.40
2022-09-15T02:24:46.693Z,2.90
2022-09-15T02:27:22.161Z,1.98
2022-09-15T02:29:50.116Z,2.10
2022-09-15T02:32:19.283Z,2.13
2022-09-15T02:34:51.397Z,2.05
2022-09-15T02:37:21.185Z,2.20
2022-09-15T02:39:54.939Z,1.95
2022-09-15T02:42:30.244Z,2.20
2022-09-15T02:44:57.462Z,2.30
2022-09-15T02:47:24.703Z,1.80
2022-09-15T02:49:52.177Z,2.05
2022-09-15T02:52:18.922Z,2.10
2022-09-15T02:54:45.717Z,2.22
2022-09-15T02:57:13.949Z,2.20
2022-09-15T02:59:58.925Z,2.53
2022-09-15T03:02:25.596Z,2.40
2022-09-15T03:04:52.185Z,1.90
2022-09-15T03:07:19.393Z,2.28
2022-09-15T03:09:46.131Z,2.00
2022-09-15T03:12:12.676Z,1.90
2022-09-15T03:14:39.209Z,2.20
2022-09-15T03:17:05.781Z,2.20
2022-09-15T03:19:32.375Z,2.22
2022-09-15T03:21:58.958Z,2.10
2022-09-15T03:24:25.503Z,2.33
2022-09-15T03:26:51.976Z,2.17
2022-09-15T03:29:18.441Z,2.05
2022-09-15T03:31:45.047Z,2.20
2022-09-15T03:34:11.759Z,2.75
2022-09-15T03:36:38.569Z,2.05
2022-09-15T03:39:05.171Z,2.10
2022-09-15T03:41:31.771Z,2.00
2022-09-15T03:43:58.322Z,2.03
2022-09-15T03:46:24.913Z,2.80
2022-09-15T03:48:51.524Z,2.75
2022-09-15T03:51:18.053Z,2.25
2022-09-15T03:53:44.704Z,2.28
2022-09-15T03:56:28.241Z,2.33
2022-09-15T03:58:54.965Z,2.78
2022-09-15T04:01:21.899Z,2.20
2022-09-15T04:03:51.221Z,2.65
2022-09-15T04:06:20.020Z,2.08
2022-09-15T04:08:46.822Z,2.08
2022-09-15T04:11:13.951Z,2.20
2022-09-15T04:13:42.063Z,2.50
2022-09-15T04:16:15.551Z,2.60
2022-09-15T04:18:42.307Z,2.35
2022-09-15T04:21:13.109Z,2.30
2022-09-15T04:23:41.860Z,2.20
2022-09-15T04:26:14.330Z,2.63
2022-09-15T04:28:40.917Z,2.67
2022-09-15T04:31:10.515Z,2.50
2022-09-15T04:33:37.890Z,2.13
2022-09-15T04:36:11.063Z,2.47
2022-09-15T04:38:37.643Z,2.60
2022-09-15T04:41:05.284Z,2.58
2022-09-15T04:43:33.019Z,2.65
2022-09-15T04:45:59.682Z,2.50
2022-09-15T04:48:26.789Z,2.72
2022-09-15T04:50:53.596Z,2.65
2022-09-15T04:53:20.779Z,2.97
2022-09-15T04:55:47.348Z,3.35
2022-09-15T04:58:14.576Z,2.53
2022-09-15T05:00:45.800Z,3.38
2022-09-15T05:03:14.182Z,2.70
2022-09-15T05:05:41.400Z,3.15
2022-09-15T05:08:08.337Z,3.30
2022-09-15T05:10:35.440Z,3.10
2022-09-15T05:13:02.347Z,3.40
2022-09-15T05:15:29.056Z,3.25
2022-09-15T05:17:55.627Z,3.38
2022-09-15T05:20:22.824Z,3.22
2022-09-15T05:22:49.368Z,2.53
2022-09-15T05:25:15.986Z,3.90
2022-09-15T05:27:42.741Z,3.35
2022-09-15T05:30:35.877Z,2.83
2022-09-15T05:32:56.779Z,3.85
2022-09-15T05:35:24.031Z,3.97
2022-09-15T05:37:50.658Z,2.63
2022-09-15T05:40:17.295Z,3.22
2022-09-15T05:42:43.946Z,2.70
2022-09-15T05:45:11.074Z,2.80
2022-09-15T05:47:37.798Z,3.22
2022-09-15T05:50:04.685Z,3.10
2022-09-15T05:52:31.239Z,3.35
2022-09-15T05:54:59.361Z,3.15
2022-09-15T05:57:26.131Z,3.40
2022-09-15T05:59:52.667Z,3.45
2022-09-15T06:02:19.264Z,3.00
2022-09-15T06:04:45.913Z,3.28
2022-09-15T06:07:13.421Z,3.40
2022-09-15T06:09:40.048Z,2.92
2022-09-15T06:12:06.756Z,2.78
2022-09-15T06:14:33.334Z,4.03
2022-09-15T06:17:00.265Z,2.85
2022-09-15T06:19:26.765Z,3.50
2022-09-15T06:21:54.423Z,3.50
2022-09-15T06:24:22.109Z,4.05
2022-09-15T06:26:48.652Z,4.03
2022-09-15T06:29:15.210Z,3.33
2022-09-15T06:31:41.945Z,3.35
2022-09-15T06:34:11.278Z,3.20
2022-09-15T06:36:38.942Z,3.83
2022-09-15T06:39:05.623Z,3.10
2022-09-15T06:41:47.386Z,3.70
2022-09-15T06:44:21.954Z,3.72
2022-09-15T06:46:49.414Z,3.40
2022-09-15T06:49:16.454Z,3.72
2022-09-15T06:51:43.083Z,3.67
2022-09-15T06:54:10.935Z,2.63
2022-09-15T06:56:38.442Z,3.20
2022-09-15T06:59:05.550Z,3.33
2022-09-15T07:01:32.686Z,3.05
2022-09-15T07:04:01.602Z,3.78
2022-09-15T07:06:30.262Z,3.53
2022-09-15T07:08:57.456Z,3.58
2022-09-15T07:11:24.759Z,2.78
2022-09-15T07:13:52.134Z,3.10
2022-09-15T07:16:20.192Z,3.45
2022-09-15T07:18:47.471Z,3.40
2022-09-15T07:21:17.100Z,2.83
2022-09-15T07:23:44.476Z,3.47
2022-09-15T07:26:23.868Z,3.35
2022-09-15T07:29:05.690Z,3.42
2022-09-15T07:31:34.789Z,2.92
2022-09-15T07:34:02.312Z,2.90
2022-09-15T07:36:29.879Z,3.38
2022-09-15T07:38:56.497Z,2.97
2022-09-15T07:41:28.349Z,3.47
2022-09-15T07:43:57.870Z,3.30
2022-09-15T07:46:25.589Z,3.30
2022-09-15T07:48:56.418Z,3.95
2022-09-15T07:51:23.797Z,2.85
2022-09-15T07:53:51.206Z,3.13
2022-09-15T07:56:18.649Z,3.13
2022-09-15T07:58:46.557Z,3.08
2022-09-15T08:01:16.737Z,2.75
2022-09-15T08:03:49.146Z,3.30
2022-09-15T08:06:18.103Z,2.88
2022-09-15T08:08:45.203Z,3.50
2022-09-15T08:11:18.420Z,3.30
2022-09-15T08:13:46.934Z,3.15
2022-09-15T08:16:22.354Z,3.13
2022-09-15T08:18:50.028Z,2.83
2022-09-15T08:21:20.345Z,2.67
2022-09-15T08:23:51.840Z,3.55
2022-09-15T08:26:18.893Z,3.13
2022-09-15T08:28:46.328Z,3.53
2022-09-15T08:31:14.258Z,3.33
2022-09-15T08:33:45.516Z,3.45
2022-09-15T08:36:13.803Z,3.28
2022-09-15T08:38:41.972Z,2.55
2022-09-15T08:41:18.722Z,3.70
2022-09-15T08:43:57.703Z,3.40
2022-09-15T08:46:31.915Z,2.85
2022-09-15T08:49:10.748Z,4.05
2022-09-15T08:51:46.280Z,3.90
2022-09-15T08:54:21.791Z,2.40
2022-09-15T08:56:48.994Z,3.65
2022-09-15T08:59:17.500Z,4.57
2022-09-15T09:02:18.281Z,3.00
2022-09-15T09:05:03.443Z,3.88
2022-09-15T09:08:09.767Z,2.85
2022-09-15T09:10:53.011Z,3.22
2022-09-15T09:13:35.206Z,3.17
2022-09-15T09:19:18.703Z,4.07
2022-09-15T09:21:53.683Z,4.25
2022-09-15T09:24:28.790Z,3.75
2022-09-15T09:26:55.822Z,3.88
2022-09-15T09:29:34.707Z,3.92
2022-09-15T09:32:03.299Z,7.05
2022-09-15T09:35:03.004Z,3.63
2022-09-15T09:37:29.993Z,11.30
2022-09-15T09:39:56.836Z,7.63
2022-09-15T09:42:30.559Z,11.05
2022-09-15T09:44:57.376Z,10.98
2022-09-15T09:47:29.797Z,10.65
2022-09-15T09:49:56.422Z,8.48
2022-09-15T09:52:39.280Z,7.93
2022-09-15T09:55:27.204Z,8.25
2022-09-15T09:58:10.954Z,11.70
2022-09-15T10:00:40.355Z,7.43
2022-09-15T10:03:18.936Z,7.20
2022-09-15T10:06:00.094Z,7.60
2022-09-15T10:08:26.831Z,12.70
2022-09-15T10:10:55.913Z,10.23
2022-09-15T10:13:23.035Z,11.57
2022-09-15T10:15:59.442Z,8.25
2022-09-15T10:18:34.300Z,11.80
2022-09-15T10:21:08.347Z,9.98
2022-09-15T10:23:35.556Z,9.73
2022-09-15T10:26:32.193Z,10.65
2022-09-15T10:29:17.136Z,13.95
2022-09-15T10:31:45.150Z,11.32
2022-09-15T10:34:28.446Z,11.02
2022-09-15T10:37:06.275Z,12.50
2022-09-15T10:39:53.371Z,10.95
2022-09-15T10:42:33.468Z,14.73
2022-09-15T10:45:39.626Z,13.50
2022-09-15T10:48:39.982Z,14.02
2022-09-15T10:51:18.720Z,14.07
2022-09-15T10:54:00.261Z,13.40
2022-09-15T10:56:34.540Z,13.52
2022-09-15T10:59:16.099Z,14.02
2022-09-15T11:02:01.742Z,13.65
2022-09-15T11:04:57.962Z,11.98
2022-09-15T11:07:37.912Z,14.82
2022-09-15T11:10:34.035Z,13.05
2022-09-15T11:13:09.347Z,13.02
2022-09-15T11:16:24.180Z,13.30
2022-09-15T11:19:10.049Z,11.73
2022-09-15T11:21:44.813Z,10.52
2022-09-15T11:24:22.507Z,11.90
2022-09-15T11:27:01.504Z,10.85
2022-09-15T11:29:43.592Z,9.48
2022-09-15T11:34:49.811Z,11.40
2022-09-15T11:37:25.609Z,10.82
2022-09-15T11:40:06.642Z,11.25
2022-09-15T11:42:44.978Z,9.10
2022-09-15T11:45:24.523Z,9.57
2022-09-15T11:47:59.438Z,9.50
2022-09-15T11:50:34.301Z,10.02
2022-09-15T11:53:09.700Z,9.38
2022-09-15T11:55:45.321Z,9.88
2022-09-15T11:58:31.111Z,8.65
2022-09-15T12:01:01.911Z,8.98
2022-09-15T12:03:42.429Z,8.05
2022-09-15T12:06:28.101Z,8.65
2022-09-15T12:09:06.389Z,9.35
2022-09-15T12:11:42.395Z,8.35
2022-09-15T12:14:35.048Z,8.80
2022-09-15T12:17:01.979Z,8.52
2022-09-15T12:19:55.778Z,9.48
2022-09-15T12:22:41.423Z,9.18
2022-09-15T12:25:14.112Z,9.13
2022-09-15T12:27:40.744Z,8.60
2022-09-15T12:30:41.219Z,9.65
2022-09-15T12:33:54.044Z,9.77
2022-09-15T12:36:34.359Z,10.88
2022-09-15T12:39:02.893Z,10.63
2022-09-15T12:41:30.636Z,9.13
2022-09-15T12:44:02.458Z,9.80
2022-09-15T12:46:29.136Z,10.98
2022-09-15T12:49:03.154Z,8.90
2022-09-15T12:51:31.014Z,8.23
2022-09-15T12:54:07.521Z,8.18
2022-09-15T12:56:35.561Z,8.48
2022-09-15T12:59:11.256Z,7.63
2022-09-15T13:01:51.390Z,8.80
2022-09-15T13:04:43.136Z,8.07
2022-09-15T13:07:16.907Z,7.85
2022-09-15T13:09:58.435Z,8.57
2022-09-15T13:12:33.138Z,7.13
2022-09-15T13:15:03.988Z,7.53
2022-09-15T13:17:33.215Z,7.88
2022-09-15T13:20:09.225Z,8.30
2022-09-15T13:22:43.965Z,7.30
2022-09-15T13:25:14.650Z,6.63
2022-09-15T13:27:43.099Z,8.32
2022-09-15T13:30:18.889Z,7.35
2022-09-15T13:33:09.968Z,7.40
2022-09-15T13:35:43.039Z,8.00
2022-09-15T13:38:39.502Z,9.07
2022-09-15T13:41:24.780Z,9.13
2022-09-15T13:44:00.451Z,8.38
2022-09-15T13:46:48.268Z,9.40
2022-09-15T13:49:33.198Z,10.32
2022-09-15T13:52:22.528Z,9.98
2022-09-15T13:55:24.320Z,9.80
2022-09-15T14:01:07.544Z,9.30
2022-09-15T14:03:41.713Z,8.65
2022-09-15T14:06:30.402Z,8.75
2022-09-15T14:09:04.307Z,9.23
2022-09-15T14:11:33.613Z,7.93
2022-09-15T14:14:03.356Z,7.70
2022-09-15T14:16:36.792Z,8.15
2022-09-15T14:19:27.832Z,7.32
2022-09-15T14:21:58.298Z,7.85
2022-09-15T14:24:30.979Z,7.40
2022-09-15T14:27:01.007Z,9.43
2022-09-15T14:29:27.946Z,8.82
2022-09-15T14:32:01.991Z,7.80
2022-09-15T14:34:33.373Z,8.65
2022-09-15T14:37:12.016Z,7.85
2022-09-15T14:39:40.431Z,7.55
2022-09-15T14:42:23.015Z,8.18
2022-09-15T14:47:43.398Z,8.13
2022-09-15T14:50:21.487Z,10.73
2022-09-15T14:52:50.601Z,10.82
2022-09-15T14:55:23.793Z,9.38
2022-09-15T14:58:01.329Z,10.02
2022-09-15T15:00:33.054Z,10.68
2022-09-15T15:03:14.744Z,8.45
2022-09-15T15:06:02.798Z,7.90
2022-09-15T15:08:32.971Z,8.63
2022-09-15T15:11:01.610Z,8.23
2022-09-15T15:13:30.074Z,8.55
2022-09-15T15:15:56.878Z,9.05
2022-09-15T15:18:35.561Z,8.73
2022-09-15T15:21:02.214Z,8.60
2022-09-15T15:23:28.851Z,8.60
2022-09-15T15:26:26.739Z,9.05
2022-09-15T15:28:53.276Z,7.80
2022-09-15T15:31:23.690Z,7.45
2022-09-15T15:34:05.710Z,7.63
2022-09-15T15:36:35.202Z,8.52
2022-09-15T15:39:24.796Z,8.13
2022-09-15T15:42:01.332Z,8.80
2022-09-15T15:44:31.559Z,7.38
2022-09-15T15:47:13.507Z,6.85
2022-09-15T15:50:02.313Z,7.68
2022-09-15T15:52:27.711Z,8.15
2022-09-15T15:54:54.206Z,7.75
2022-09-15T15:57:27.640Z,8.48
2022-09-15T15:59:56.988Z,7.38
2022-09-15T16:02:25.522Z,6.55
2022-09-15T16:04:52.335Z,7.10
2022-09-15T16:07:23.354Z,6.70
2022-09-15T16:09:52.099Z,6.50
2022-09-15T16:12:19.225Z,6.97
2022-09-15T16:14:47.596Z,7.70
2022-09-15T16:17:15.041Z,6.93
2022-09-15T16:19:41.841Z,7.00
2022-09-15T16:22:16.321Z,6.90
2022-09-15T16:24:43.053Z,7.28
2022-09-15T16:27:16.339Z,6.43
2022-09-15T16:29:43.951Z,5.82
2022-09-15T16:32:22.111Z,6.15
2022-09-15T16:34:53.944Z,6.25
2022-09-15T16:37:23.140Z,5.20
2022-09-15T16:39:52.120Z,5.95
2022-09-15T16:42:19.060Z,5.70
2022-09-15T16:44:46.398Z,6.15
2022-09-15T16:47:13.196Z,6.10
2022-09-15T16:49:39.784Z,5.60
2022-09-15T16:52:07.354Z,5.97
2022-09-15T16:54:33.964Z,5.38
2022-09-15T16:57:00.672Z,5.18
2022-09-15T16:59:27.245Z,5.78
2022-09-15T17:01:53.980Z,5.40
2022-09-15T17:04:20.999Z,5.57
2022-09-15T17:06:47.653Z,5.85
2022-09-15T17:09:14.386Z,5.13
2022-09-15T17:11:41.238Z,5.15
2022-09-15T17:14:14.253Z,5.10
2022-09-15T17:16:41.993Z,5.40
2022-09-15T17:19:08.669Z,6.20
2022-09-15T17:21:35.342Z,5.88
2022-09-15T17:24:03.497Z,5.05
2022-09-15T17:26:31.566Z,5.22
2022-09-15T17:28:58.993Z,5.55
2022-09-15T17:31:26.080Z,5.57
2022-09-15T17:33:52.796Z,5.88
2022-09-15T17:36:19.904Z,6.22
2022-09-15T17:38:49.339Z,5.93
2022-09-15T17:41:18.736Z,5.47
2022-09-15T17:43:45.936Z,5.70
2022-09-15T17:46:13.033Z,5.90
2022-09-15T17:48:40.142Z,6.78
2022-09-15T17:51:08.047Z,6.18
2022-09-15T17:53:35.007Z,5.35
2022-09-15T17:56:01.772Z,5.60
2022-09-15T17:58:31.609Z,5.93
2022-09-15T18:00:59.163Z,5.82
2022-09-15T18:03:30.027Z,5.72
2022-09-15T18:05:58.549Z,5.53
2022-09-15T18:08:26.467Z,5.30
2022-09-15T18:10:53.604Z,5.05
2022-09-15T18:13:23.522Z,5.20
2022-09-15T18:15:50.702Z,6.68
2022-09-15T18:18:20.077Z,5.65
2022-09-15T18:20:47.720Z,5.30
2022-09-15T18:23:16.884Z,4.63
2022-09-15T18:25:44.651Z,4.60
2022-09-15T18:28:12.439Z,5.80
2022-09-15T18:30:42.278Z,5.20
2022-09-15T18:33:20.845Z,4.65
2022-09-15T18:35:50.374Z,5.03
2022-09-15T18:38:18.089Z,4.72
2022-09-15T18:40:56.004Z,4.82
2022-09-15T18:43:27.400Z,4.57
2022-09-15T18:46:02.123Z,4.10
2022-09-15T18:48:29.492Z,4.78
2022-09-15T18:50:57.677Z,4.57
2022-09-15T18:53:24.642Z,4.60
2022-09-15T18:55:51.555Z,3.97
2022-09-15T18:58:19.675Z,4.15
2022-09-15T19:00:46.803Z,4.35
2022-09-15T19:03:14.328Z,4.80
2022-09-15T19:05:41.743Z,4.47
2022-09-15T19:08:09.414Z,4.57
2022-09-15T19:10:36.085Z,5.25
2022-09-15T19:13:02.812Z,4.93
2022-09-15T19:15:31.364Z,4.40
2022-09-15T19:17:58.044Z,4.50
2022-09-15T19:20:25.419Z,4.03
2022-09-15T19:22:52.246Z,4.05
2022-09-15T19:25:20.436Z,4.05
2022-09-15T19:27:48.033Z,4.10
2022-09-15T19:30:15.236Z,4.25
2022-09-15T19:32:46.325Z,3.83
2022-09-15T19:35:13.902Z,4.17
2022-09-15T19:37:41.778Z,4.30
2022-09-15T19:40:12.265Z,3.53
2022-09-15T19:42:41.871Z,4.43
2022-09-15T19:45:10.985Z,3.50
2022-09-15T19:47:38.996Z,3.42
2022-09-15T19:50:08.098Z,3.50
2022-09-15T19:52:34.739Z,3.03
2022-09-15T19:55:01.685Z,2.92
2022-09-15T19:57:28.731Z,3.15
2022-09-15T19:59:55.321Z,3.03
2022-09-15T20:02:23.252Z,2.85
2022-09-15T20:07:34.684Z,3.20
2022-09-15T20:10:02.189Z,3.20
2022-09-15T20:12:28.838Z,3.80
2022-09-15T20:14:55.655Z,3.13
2022-09-15T20:17:22.558Z,3.10
2022-09-15T20:19:49.290Z,2.92
2022-09-15T20:22:16.530Z,2.83
2022-09-15T20:24:46.178Z,2.88
2022-09-15T20:27:14.131Z,3.13
2022-09-15T20:29:42.113Z,3.30
2022-09-15T20:32:08.797Z,3.40
2022-09-15T20:34:38.061Z,2.92
2022-09-15T20:37:05.687Z,2.80
2022-09-15T20:39:33.347Z,2.83
2022-09-15T20:41:59.918Z,3.15
2022-09-15T20:44:26.619Z,3.00
2022-09-15T20:46:53.676Z,3.25
2022-09-15T20:49:20.492Z,3.78
2022-09-15T20:51:47.143Z,3.58
2022-09-15T20:54:15.049Z,3.53
2022-09-15T20:56:42.972Z,3.10
2022-09-15T20:59:15.761Z,2.97
2022-09-15T21:01:44.036Z,2.85
2022-09-15T21:04:12.111Z,3.20
2022-09-15T21:06:39.281Z,3.20
2022-09-15T21:09:06.367Z,3.35
2022-09-15T21:11:33.885Z,3.47
2022-09-15T21:14:01.548Z,3.28
2022-09-15T21:16:29.105Z,3.13
2022-09-15T21:18:57.575Z,3.33
2022-09-15T21:21:26.512Z,2.75
2022-09-15T21:24:03.501Z,3.72
2022-09-15T21:26:32.646Z,3.60
2022-09-15T21:28:59.298Z,3.50
2022-09-15T21:31:28.552Z,3.22
2022-09-15T21:33:56.330Z,3.05
2022-09-15T21:36:25.962Z,3.42
2022-09-15T21:38:56.192Z,3.20
2022-09-15T21:41:25.531Z,2.80
2022-09-15T21:43:54.924Z,3.30
2022-09-15T21:46:24.192Z,3.47
2022-09-15T21:48:51.187Z,3.60
2022-09-15T21:51:24.294Z,3.25
2022-09-15T21:53:53.043Z,3.30
2022-09-15T21:56:20.672Z,2.80
2022-09-15T21:58:47.310Z,2.78
2022-09-15T22:01:19.267Z,2.83
2022-09-15T22:09:10.486Z,2.50
2022-09-15T22:11:38.402Z,3.05
2022-09-15T22:14:10.423Z,2.45
2022-09-15T22:19:07.663Z,2.83
2022-09-15T22:21:37.184Z,3.10
2022-09-15T22:24:05.806Z,2.72
2022-09-15T22:26:34.359Z,2.58
2022-09-15T22:29:01.750Z,2.90
2022-09-15T22:31:29.320Z,2.63
2022-09-15T22:33:56.659Z,2.63
2022-09-15T22:36:29.719Z,2.70
2022-09-15T22:39:04.391Z,3.10
2022-09-15T22:41:35.242Z,2.92
2022-09-15T22:44:04.434Z,2.67
2022-09-15T22:46:31.395Z,2.58
2022-09-15T22:48:58.678Z,2.80
2022-09-15T22:51:25.354Z,2.35
2022-09-15T22:53:57.184Z,2.35
2022-09-15T22:58:52.460Z,2.55
2022-09-15T23:01:21.566Z,2.70
2022-09-15T23:03:53.528Z,2.58
2022-09-15T23:06:21.331Z,3.00
2022-09-15T23:08:52.858Z,2.72
2022-09-15T23:11:20.401Z,2.70
2022-09-15T23:13:48.791Z,2.85
2022-09-15T23:16:15.853Z,3.00
2022-09-15T23:18:43.480Z,2.97
2022-09-15T23:21:12.198Z,2.53
2022-09-15T23:23:41.153Z,2.50
2022-09-15T23:26:10.474Z,2.75
2022-09-15T23:28:41.516Z,2.42
2022-09-15T23:31:10.303Z,2.55
2022-09-15T23:33:37.082Z,2.72
2022-09-15T23:36:05.545Z,2.70
2022-09-15T23:38:38.923Z,2.47
2022-09-15T23:41:06.803Z,2.50
2022-09-15T23:43:34.009Z,2.40
2022-09-15T23:46:01.064Z,2.42
2022-09-15T23:48:27.722Z,2.20
2022-09-15T23:50:54.606Z,2.17
2022-09-15T23:53:21.723Z,2.70
2022-09-15T23:55:48.572Z,2.60
2022-09-15T23:58:16.070Z,2.22
